createdAt,value
2019-03-09T00:00:24.842Z,0.00
2019-03-09T00:01:24.831Z,0.00
2019-03-09T00:02:24.820Z,0.00
2019-03-09T00:03:24.809Z,0.00
2019-03-09T00:04:24.812Z,0.00
2019-03-09T00:05:24.786Z,0.00
2019-03-09T00:06:24.775Z,0.00
2019-03-09T00:07:24.788Z,0.00
2019-03-09T00:08:24.755Z,0.00
2019-03-09T00:09:24.752Z,0.00
2019-03-09T00:10:24.729Z,0.00
2019-03-09T00:11:24.717Z,0.00
2019-03-09T00:12:24.707Z,0.00
2019-03-09T00:13:24.714Z,0.00
2019-03-09T00:14:24.715Z,0.00
2019-03-09T00:15:24.672Z,0.00
2019-03-09T00:16:24.661Z,0.00
2019-03-09T00:17:24.654Z,0.00
2019-03-09T00:18:24.645Z,0.00
2019-03-09T00:19:24.628Z,0.00
2019-03-09T00:20:24.636Z,0.00
2019-03-09T00:21:24.605Z,0.00
2019-03-09T00:22:24.593Z,0.00
2019-03-09T00:23:24.605Z,0.00
2019-03-09T00:24:24.578Z,0.00
2019-03-09T00:25:24.572Z,0.00
2019-03-09T00:26:24.548Z,0.00
2019-03-09T00:27:29.834Z,0.00
2019-03-09T00:28:25.550Z,0.00
2019-03-09T00:29:24.519Z,0.00
2019-03-09T00:30:24.561Z,0.00
2019-03-09T00:31:25.474Z,0.00
2019-03-09T00:32:24.488Z,0.00
2019-03-09T00:33:24.476Z,0.00
2019-03-09T00:34:24.463Z,0.00
2019-03-09T00:35:24.461Z,0.00
2019-03-09T00:36:24.437Z,0.00
2019-03-09T00:37:24.426Z,0.00
2019-03-09T00:38:24.416Z,0.00
2019-03-09T00:39:24.416Z,0.00
2019-03-09T00:40:24.452Z,0.00
2019-03-09T00:41:24.389Z,0.00
2019-03-09T00:42:24.375Z,0.00
2019-03-09T00:43:24.374Z,0.00
2019-03-09T00:44:24.352Z,0.00
2019-03-09T00:45:24.354Z,0.00
2019-03-09T00:46:24.329Z,0.00
2019-03-09T00:47:24.318Z,0.00
2019-03-09T00:48:24.306Z,0.00
2019-03-09T00:49:24.293Z,0.00
2019-03-09T00:50:24.292Z,0.00
2019-03-09T00:51:24.285Z,0.00
2019-03-09T00:52:24.258Z,0.00
2019-03-09T00:53:24.250Z,0.00
2019-03-09T00:54:24.242Z,0.00
2019-03-09T00:55:24.240Z,0.00
2019-03-09T00:56:24.216Z,0.00
2019-03-09T00:57:24.207Z,0.00
2019-03-09T00:58:24.199Z,0.00
2019-03-09T00:59:24.183Z,0.00
2019-03-09T01:00:24.251Z,0.00
2019-03-09T01:01:24.155Z,0.00
2019-03-09T01:02:24.147Z,0.00
2019-03-09T01:03:24.135Z,0.00
2019-03-09T01:04:24.123Z,0.00
2019-03-09T01:05:24.125Z,0.00
2019-03-09T01:06:24.117Z,0.00
2019-03-09T01:07:24.088Z,0.00
2019-03-09T01:08:24.077Z,0.00
2019-03-09T01:09:24.071Z,0.00
2019-03-09T01:10:24.084Z,0.00
2019-03-09T01:11:24.043Z,0.00
2019-03-09T01:12:24.054Z,0.00
2019-03-09T01:13:24.022Z,0.00
2019-03-09T01:14:24.012Z,0.00
2019-03-09T01:15:24.000Z,0.00
2019-03-09T01:16:23.998Z,0.00
2019-03-09T01:17:23.979Z,0.00
2019-03-09T01:18:23.968Z,0.00
2019-03-09T01:19:23.968Z,0.00
2019-03-09T01:20:23.946Z,0.00
2019-03-09T01:21:23.951Z,0.00
2019-03-09T01:22:23.918Z,0.00
2019-03-09T01:23:23.907Z,0.00
2019-03-09T01:24:23.897Z,0.00
2019-03-09T01:25:23.884Z,0.00
2019-03-09T01:26:23.892Z,0.00
2019-03-09T01:27:23.863Z,0.00
2019-03-09T01:28:23.862Z,0.00
2019-03-09T01:29:23.844Z,0.00
2019-03-09T01:30:23.828Z,0.00
2019-03-09T01:31:23.834Z,0.00
2019-03-09T01:32:23.806Z,0.00
2019-03-09T01:33:23.795Z,0.00
2019-03-09T01:34:23.791Z,0.00
2019-03-09T01:35:23.772Z,0.00
2019-03-09T01:36:23.779Z,0.00
2019-03-09T01:37:23.750Z,0.00
2019-03-09T01:38:23.743Z,0.00
2019-03-09T01:39:23.730Z,0.00
2019-03-09T01:40:23.716Z,0.00
2019-03-09T01:41:23.736Z,0.00
2019-03-09T01:42:23.700Z,0.00
2019-03-09T01:43:23.693Z,0.00
2019-03-09T01:44:23.672Z,0.00
2019-03-09T01:45:23.665Z,0.00
2019-03-09T01:46:23.667Z,0.00
2019-03-09T01:47:23.637Z,0.00
2019-03-09T01:48:23.626Z,0.00
2019-03-09T01:49:23.626Z,0.00
2019-03-09T01:50:23.604Z,0.00
2019-03-09T01:51:23.606Z,0.00
2019-03-09T01:52:23.589Z,0.00
2019-03-09T01:53:23.569Z,0.00
2019-03-09T01:54:23.563Z,0.00
2019-03-09T01:55:23.546Z,0.00
2019-03-09T01:56:23.546Z,0.00
2019-03-09T01:57:23.529Z,0.00
2019-03-09T01:58:23.515Z,0.00
2019-03-09T01:59:23.502Z,0.00
2019-03-09T02:00:23.515Z,0.00
2019-03-09T02:01:23.491Z,0.00
2019-03-09T02:02:23.469Z,0.00
2019-03-09T02:03:23.461Z,0.00
2019-03-09T02:04:23.488Z,0.00
2019-03-09T02:05:23.680Z,0.00
2019-03-09T02:06:23.507Z,0.00
2019-03-09T02:07:23.777Z,0.00
2019-03-09T02:08:23.453Z,0.00
2019-03-09T02:09:23.479Z,0.00
2019-03-09T02:10:23.525Z,0.00
2019-03-09T02:11:23.799Z,0.00
2019-03-09T02:12:23.440Z,0.00
2019-03-09T02:13:23.461Z,0.00
2019-03-09T02:14:23.353Z,0.00
2019-03-09T02:15:23.344Z,0.00
2019-03-09T02:16:23.382Z,0.00
2019-03-09T02:17:23.346Z,0.00
2019-03-09T02:18:23.343Z,0.00
2019-03-09T02:19:23.309Z,0.00
2019-03-09T02:20:23.271Z,0.00
2019-03-09T02:21:23.282Z,0.00
2019-03-09T02:22:23.300Z,0.00
2019-03-09T02:23:23.291Z,0.00
2019-03-09T02:24:23.237Z,0.00
2019-03-09T02:25:23.218Z,0.00
2019-03-09T02:26:23.795Z,0.00
2019-03-09T02:27:23.203Z,0.00
2019-03-09T02:28:23.221Z,0.00
2019-03-09T02:29:23.239Z,0.00
2019-03-09T02:30:23.228Z,0.00
2019-03-09T02:31:23.185Z,0.00
2019-03-09T02:32:23.804Z,0.00
2019-03-09T02:33:23.172Z,0.00
2019-03-09T02:34:23.116Z,0.00
2019-03-09T02:35:23.123Z,0.00
2019-03-09T02:36:23.140Z,0.00
2019-03-09T02:37:23.430Z,0.00
2019-03-09T02:38:23.094Z,0.00
2019-03-09T02:39:23.111Z,0.00
2019-03-09T02:40:23.361Z,0.00
2019-03-09T02:41:23.036Z,0.00
2019-03-09T02:42:23.056Z,0.00
2019-03-09T02:43:23.015Z,0.00
2019-03-09T02:44:23.044Z,0.00
2019-03-09T02:45:23.061Z,0.00
2019-03-09T02:46:22.993Z,0.00
2019-03-09T02:47:23.024Z,0.00
2019-03-09T02:48:23.006Z,0.00
2019-03-09T02:49:22.996Z,0.00
2019-03-09T02:50:22.995Z,0.00
2019-03-09T02:51:23.002Z,0.00
2019-03-09T02:52:23.328Z,0.00
2019-03-09T02:53:22.946Z,0.00
2019-03-09T02:54:22.961Z,0.00
2019-03-09T02:55:22.885Z,0.00
2019-03-09T02:56:22.917Z,0.00
2019-03-09T02:57:22.904Z,0.00
2019-03-09T02:58:22.867Z,0.00
2019-03-09T02:59:22.897Z,0.00
2019-03-09T03:00:22.890Z,0.00
2019-03-09T03:01:22.844Z,0.00
2019-03-09T03:02:22.877Z,0.00
2019-03-09T03:03:22.819Z,0.00
2019-03-09T03:04:22.868Z,0.00
2019-03-09T03:05:22.810Z,0.00
2019-03-09T03:06:22.868Z,0.00
2019-03-09T03:07:22.794Z,0.00
2019-03-09T03:08:22.754Z,0.00
2019-03-09T03:09:22.761Z,0.00
2019-03-09T03:10:22.755Z,0.00
2019-03-09T03:11:22.712Z,0.00
2019-03-09T03:12:22.735Z,0.00
2019-03-09T03:13:22.695Z,0.00
2019-03-09T03:14:22.703Z,0.00
2019-03-09T03:15:30.387Z,0.00
2019-03-09T03:16:30.866Z,0.00
2019-03-09T03:17:30.773Z,0.00
2019-03-09T03:18:22.625Z,0.00
2019-03-09T03:19:29.635Z,0.00
2019-03-09T03:20:22.638Z,0.00
2019-03-09T03:21:22.620Z,0.00
2019-03-09T03:22:22.618Z,0.00
2019-03-09T03:23:22.578Z,0.00
2019-03-09T03:24:22.584Z,0.00
2019-03-09T03:25:22.543Z,0.00
2019-03-09T03:26:22.551Z,0.00
2019-03-09T03:27:22.552Z,0.00
2019-03-09T03:28:22.531Z,0.00
2019-03-09T03:29:22.625Z,0.00
2019-03-09T03:30:22.537Z,0.00
2019-03-09T03:31:22.496Z,0.00
2019-03-09T03:32:22.533Z,0.00
2019-03-09T03:33:22.546Z,0.00
2019-03-09T03:34:22.473Z,0.00
2019-03-09T03:35:22.497Z,0.00
2019-03-09T03:36:22.438Z,0.00
2019-03-09T03:37:22.413Z,0.00
2019-03-09T03:38:22.481Z,0.00
2019-03-09T03:39:22.439Z,0.00
2019-03-09T03:40:22.372Z,0.00
2019-03-09T03:41:22.357Z,0.00
2019-03-09T03:42:22.365Z,0.00
2019-03-09T03:43:22.377Z,0.00
2019-03-09T03:44:22.347Z,0.00
2019-03-09T03:45:22.316Z,0.00
2019-03-09T03:46:22.326Z,0.00
2019-03-09T03:47:22.319Z,0.00
2019-03-09T03:48:22.332Z,0.00
2019-03-09T03:49:22.309Z,0.00
2019-03-09T03:50:22.339Z,0.00
2019-03-09T03:51:22.250Z,0.00
2019-03-09T03:52:22.274Z,0.00
2019-03-09T03:53:22.444Z,0.00
2019-03-09T03:54:22.245Z,0.00
2019-03-09T03:55:22.289Z,0.00
2019-03-09T03:56:22.244Z,0.00
2019-03-09T03:57:22.233Z,0.00
2019-03-09T03:58:22.330Z,0.00
2019-03-09T03:59:22.196Z,0.00
2019-03-09T04:00:22.168Z,0.00
2019-03-09T04:01:22.150Z,0.00
2019-03-09T04:02:22.172Z,0.00
2019-03-09T04:03:22.173Z,0.00
2019-03-09T04:04:22.172Z,0.00
2019-03-09T04:05:22.114Z,0.00
2019-03-09T04:06:22.117Z,0.00
2019-03-09T04:07:22.085Z,0.00
2019-03-09T04:08:22.084Z,0.00
2019-03-09T04:09:22.079Z,0.00
2019-03-09T04:10:22.068Z,0.00
2019-03-09T04:11:22.025Z,0.00
2019-03-09T04:12:22.008Z,0.00
2019-03-09T04:13:22.050Z,0.00
2019-03-09T04:14:22.010Z,0.00
2019-03-09T04:15:21.996Z,0.00
2019-03-09T04:16:21.999Z,0.00
2019-03-09T04:17:21.979Z,0.00
2019-03-09T04:18:21.975Z,0.00
2019-03-09T04:19:21.974Z,0.00
2019-03-09T04:20:21.952Z,0.00
2019-03-09T04:21:21.984Z,0.00
2019-03-09T04:22:21.926Z,0.00
2019-03-09T04:23:21.944Z,0.00
2019-03-09T04:24:21.992Z,0.00
2019-03-09T04:25:21.892Z,0.00
2019-03-09T04:26:21.923Z,0.00
2019-03-09T04:27:21.953Z,0.00
2019-03-09T04:28:21.990Z,0.00
2019-03-09T04:29:21.887Z,0.00
2019-03-09T04:30:21.861Z,0.00
2019-03-09T04:31:21.832Z,0.00
2019-03-09T04:32:21.850Z,0.00
2019-03-09T04:33:21.789Z,0.00
2019-03-09T04:34:21.797Z,0.00
2019-03-09T04:35:21.760Z,0.00
2019-03-09T04:36:21.754Z,0.00
2019-03-09T04:37:21.766Z,0.00
2019-03-09T04:38:21.747Z,0.00
2019-03-09T04:39:21.770Z,0.00
2019-03-09T04:40:21.745Z,0.00
2019-03-09T04:41:21.701Z,0.00
2019-03-09T04:42:21.686Z,0.00
2019-03-09T04:43:21.667Z,0.00
2019-03-09T04:44:21.672Z,0.00
2019-03-09T04:45:21.642Z,0.00
2019-03-09T04:46:21.653Z,0.00
2019-03-09T04:47:21.623Z,0.00
2019-03-09T04:48:21.615Z,0.00
2019-03-09T04:49:21.639Z,0.00
2019-03-09T04:50:21.581Z,0.00
2019-03-09T04:51:21.567Z,0.00
2019-03-09T04:52:21.579Z,0.00
2019-03-09T04:53:21.631Z,0.00
2019-03-09T04:54:21.539Z,0.00
2019-03-09T04:55:21.566Z,0.00
2019-03-09T04:56:21.555Z,0.00
2019-03-09T04:57:21.525Z,0.00
2019-03-09T04:58:21.535Z,0.00
2019-03-09T04:59:21.481Z,0.00
2019-03-09T05:00:21.492Z,0.00
2019-03-09T05:01:21.489Z,0.00
2019-03-09T05:02:21.458Z,0.00
2019-03-09T05:03:21.437Z,0.00
2019-03-09T05:04:21.456Z,0.00
2019-03-09T05:05:21.508Z,0.00
2019-03-09T05:06:21.415Z,0.00
2019-03-09T05:07:21.393Z,0.00
2019-03-09T05:08:21.430Z,0.00
2019-03-09T05:09:21.444Z,0.00
2019-03-09T05:10:21.422Z,0.00
2019-03-09T05:11:21.414Z,0.00
2019-03-09T05:12:21.454Z,0.00
2019-03-09T05:13:21.350Z,0.00
2019-03-09T05:14:21.377Z,0.00
2019-03-09T05:15:21.338Z,0.00
2019-03-09T05:16:21.360Z,0.00
2019-03-09T05:17:21.348Z,0.00
2019-03-09T05:18:21.353Z,0.00
2019-03-09T05:19:21.285Z,0.00
2019-03-09T05:20:21.314Z,0.00
2019-03-09T05:21:21.289Z,0.00
2019-03-09T05:22:21.311Z,0.00
2019-03-09T05:23:21.247Z,0.00
2019-03-09T05:24:21.219Z,0.00
2019-03-09T05:25:21.260Z,0.00
2019-03-09T05:26:21.203Z,0.00
2019-03-09T05:27:21.309Z,0.00
2019-03-09T05:28:21.191Z,0.00
2019-03-09T05:29:21.202Z,0.00
2019-03-09T05:30:21.157Z,0.00
2019-03-09T05:31:21.139Z,0.00
2019-03-09T05:32:21.168Z,0.00
2019-03-09T05:33:21.173Z,0.00
2019-03-09T05:34:21.144Z,0.00
2019-03-09T05:35:21.137Z,0.00
2019-03-09T05:36:21.093Z,0.00
2019-03-09T05:37:21.069Z,0.00
2019-03-09T05:38:21.092Z,0.00
2019-03-09T05:39:21.044Z,0.00
2019-03-09T05:40:21.086Z,0.00
2019-03-09T05:41:21.086Z,0.00
2019-03-09T05:42:21.032Z,0.00
2019-03-09T05:43:21.055Z,0.00
2019-03-09T05:44:21.050Z,0.00
2019-03-09T05:45:20.995Z,0.00
2019-03-09T05:46:21.150Z,0.00
2019-03-09T05:47:20.993Z,0.00
2019-03-09T05:48:20.952Z,0.00
2019-03-09T05:49:21.036Z,0.00
2019-03-09T05:50:20.936Z,0.00
2019-03-09T05:51:20.987Z,0.00
2019-03-09T05:52:21.004Z,0.00
2019-03-09T05:53:20.935Z,0.00
2019-03-09T05:54:20.931Z,0.00
2019-03-09T05:55:20.889Z,4.00
2019-03-09T05:56:20.872Z,4.00
2019-03-09T05:57:20.871Z,4.00
2019-03-09T05:58:20.910Z,4.00
2019-03-09T05:59:20.840Z,4.00
2019-03-09T06:00:20.881Z,4.00
2019-03-09T06:01:20.971Z,0.00
2019-03-09T06:02:20.837Z,0.00
2019-03-09T06:03:20.836Z,0.00
2019-03-09T06:04:20.763Z,0.00
2019-03-09T06:05:20.789Z,4.00
2019-03-09T06:06:20.859Z,4.00
2019-03-09T06:07:20.719Z,4.00
2019-03-09T06:08:20.712Z,4.00
2019-03-09T06:09:20.712Z,4.00
2019-03-09T06:10:20.731Z,4.00
2019-03-09T06:11:20.765Z,4.00
2019-03-09T06:12:20.686Z,4.00
2019-03-09T06:13:20.666Z,8.00
2019-03-09T06:14:20.695Z,8.00
2019-03-09T06:15:20.722Z,8.00
2019-03-09T06:16:20.684Z,8.00
2019-03-09T06:17:20.626Z,12.00
2019-03-09T06:18:20.609Z,12.00
2019-03-09T06:19:20.600Z,12.00
2019-03-09T06:20:20.611Z,12.00
2019-03-09T06:21:20.580Z,12.00
2019-03-09T06:22:20.580Z,12.00
2019-03-09T06:23:20.548Z,12.00
2019-03-09T06:24:20.568Z,12.00
2019-03-09T06:25:20.539Z,16.00
2019-03-09T06:26:20.544Z,16.00
2019-03-09T06:27:20.527Z,16.00
2019-03-09T06:28:20.493Z,16.00
2019-03-09T06:29:20.505Z,16.00
2019-03-09T06:30:20.547Z,20.00
2019-03-09T06:31:20.622Z,20.00
2019-03-09T06:32:20.454Z,16.00
2019-03-09T06:33:20.489Z,20.00
2019-03-09T06:34:20.471Z,20.00
2019-03-09T06:35:20.443Z,20.00
2019-03-09T06:36:20.528Z,20.00
2019-03-09T06:37:20.504Z,20.00
2019-03-09T06:38:20.381Z,20.00
2019-03-09T06:39:20.398Z,20.00
2019-03-09T06:40:20.388Z,24.00
2019-03-09T06:41:20.343Z,24.00
2019-03-09T06:42:20.382Z,32.00
2019-03-09T06:43:20.337Z,32.00
2019-03-09T06:44:20.356Z,36.00
2019-03-09T06:45:20.299Z,40.00
2019-03-09T06:46:20.398Z,40.00
2019-03-09T06:47:20.387Z,44.00
2019-03-09T06:48:20.275Z,48.00
2019-03-09T06:49:20.278Z,44.00
2019-03-09T06:50:20.249Z,44.00
2019-03-09T06:51:20.247Z,44.00
2019-03-09T06:52:20.277Z,44.00
2019-03-09T06:53:20.255Z,40.00
2019-03-09T06:54:20.208Z,40.00
2019-03-09T06:55:20.181Z,32.00
2019-03-09T06:56:20.174Z,32.00
2019-03-09T06:57:20.205Z,32.00
2019-03-09T06:58:20.232Z,32.00
2019-03-09T06:59:20.246Z,40.00
2019-03-09T07:00:20.204Z,44.00
2019-03-09T07:01:20.202Z,44.00
2019-03-09T07:02:20.169Z,48.00
2019-03-09T07:03:20.156Z,52.00
2019-03-09T07:04:20.185Z,48.00
2019-03-09T07:05:20.107Z,44.00
2019-03-09T07:06:20.987Z,44.00
2019-03-09T07:07:20.136Z,40.00
2019-03-09T07:08:20.056Z,40.00
2019-03-09T07:09:20.105Z,40.00
2019-03-09T07:10:20.077Z,32.00
2019-03-09T07:11:20.011Z,36.00
2019-03-09T07:12:20.077Z,32.00
2019-03-09T07:13:20.040Z,32.00
2019-03-09T07:14:20.039Z,28.00
2019-03-09T07:15:19.996Z,32.00
2019-03-09T07:16:20.002Z,28.00
2019-03-09T07:17:20.003Z,28.00
2019-03-09T07:18:19.941Z,32.00
2019-03-09T07:19:19.906Z,32.00
2019-03-09T07:20:19.918Z,32.00
2019-03-09T07:21:19.907Z,32.00
2019-03-09T07:22:19.913Z,36.00
2019-03-09T07:23:19.890Z,40.00
2019-03-09T07:24:19.857Z,44.00
2019-03-09T07:25:19.954Z,44.00
2019-03-09T07:26:19.870Z,48.00
2019-03-09T07:27:19.907Z,56.00
2019-03-09T07:28:19.874Z,60.00
2019-03-09T07:29:19.809Z,72.00
2019-03-09T07:30:19.817Z,76.00
2019-03-09T07:31:19.822Z,80.00
2019-03-09T07:32:20.005Z,72.00
2019-03-09T07:33:19.771Z,64.00
2019-03-09T07:34:27.600Z,52.00
2019-03-09T07:35:26.759Z,52.00
2019-03-09T07:36:26.748Z,40.00
2019-03-09T07:37:19.750Z,56.00
2019-03-09T07:38:19.714Z,40.00
2019-03-09T07:39:19.688Z,44.00
2019-03-09T07:40:19.674Z,40.00
2019-03-09T07:41:19.688Z,36.00
2019-03-09T07:42:19.677Z,32.00
2019-03-09T07:43:19.707Z,36.00
2019-03-09T07:44:19.634Z,40.00
2019-03-09T07:45:19.636Z,48.00
2019-03-09T07:46:19.641Z,52.00
2019-03-09T07:47:19.646Z,64.00
2019-03-09T07:48:19.634Z,108.00
2019-03-09T07:49:19.649Z,112.00
2019-03-09T07:50:19.641Z,104.00
2019-03-09T07:51:19.645Z,204.00
2019-03-09T07:52:19.579Z,180.00
2019-03-09T07:53:19.560Z,212.00
2019-03-09T07:54:19.558Z,212.00
2019-03-09T07:55:19.540Z,212.00
2019-03-09T07:56:19.515Z,216.00
2019-03-09T07:57:19.486Z,220.00
2019-03-09T07:58:19.608Z,216.00
2019-03-09T07:59:19.466Z,140.00
2019-03-09T08:00:19.517Z,196.00
2019-03-09T08:01:19.534Z,144.00
2019-03-09T08:02:19.444Z,76.00
2019-03-09T08:03:19.465Z,68.00
2019-03-09T08:04:19.419Z,76.00
2019-03-09T08:05:19.398Z,84.00
2019-03-09T08:06:19.502Z,80.00
2019-03-09T08:07:19.401Z,64.00
2019-03-09T08:08:19.591Z,44.00
2019-03-09T08:09:19.411Z,40.00
2019-03-09T08:10:19.345Z,40.00
2019-03-09T08:11:19.558Z,28.00
2019-03-09T08:12:19.370Z,28.00
2019-03-09T08:13:19.419Z,28.00
2019-03-09T08:14:19.356Z,24.00
2019-03-09T08:15:19.349Z,28.00
2019-03-09T08:16:19.318Z,28.00
2019-03-09T08:17:19.313Z,44.00
2019-03-09T08:18:19.292Z,28.00
2019-03-09T08:19:19.246Z,24.00
2019-03-09T08:20:19.274Z,20.00
2019-03-09T08:21:19.260Z,20.00
2019-03-09T08:22:19.276Z,20.00
2019-03-09T08:23:19.286Z,24.00
2019-03-09T08:24:19.234Z,24.00
2019-03-09T08:25:19.195Z,28.00
2019-03-09T08:26:19.165Z,28.00
2019-03-09T08:27:19.243Z,24.00
2019-03-09T08:28:19.230Z,24.00
2019-03-09T08:29:19.243Z,32.00
2019-03-09T08:30:19.155Z,32.00
2019-03-09T08:31:19.134Z,32.00
2019-03-09T08:32:19.148Z,32.00
2019-03-09T08:33:19.098Z,32.00
2019-03-09T08:34:19.157Z,48.00
2019-03-09T08:35:19.074Z,56.00
2019-03-09T08:36:19.187Z,56.00
2019-03-09T08:37:19.051Z,76.00
2019-03-09T08:38:19.121Z,80.00
2019-03-09T08:39:19.166Z,84.00
2019-03-09T08:40:19.002Z,68.00
2019-03-09T08:41:19.060Z,52.00
2019-03-09T08:42:19.029Z,44.00
2019-03-09T08:43:18.960Z,40.00
2019-03-09T08:44:18.991Z,40.00
2019-03-09T08:45:19.039Z,48.00
2019-03-09T08:46:18.987Z,48.00
2019-03-09T08:47:18.962Z,48.00
2019-03-09T08:48:18.950Z,44.00
2019-03-09T08:49:18.931Z,48.00
2019-03-09T08:50:18.997Z,48.00
2019-03-09T08:51:18.880Z,52.00
2019-03-09T08:52:18.919Z,48.00
2019-03-09T08:53:18.931Z,48.00
2019-03-09T08:54:18.907Z,48.00
2019-03-09T08:55:18.880Z,48.00
2019-03-09T08:56:18.958Z,48.00
2019-03-09T08:57:18.836Z,52.00
2019-03-09T08:58:18.842Z,52.00
2019-03-09T08:59:19.138Z,52.00
2019-03-09T09:00:18.832Z,56.00
2019-03-09T09:01:18.833Z,56.00
2019-03-09T09:02:18.871Z,56.00
2019-03-09T09:03:18.757Z,56.00
2019-03-09T09:04:18.768Z,56.00
2019-03-09T09:05:18.733Z,56.00
2019-03-09T09:06:18.714Z,60.00
2019-03-09T09:07:18.757Z,56.00
2019-03-09T09:08:18.801Z,52.00
2019-03-09T09:09:18.708Z,48.00
2019-03-09T09:10:18.750Z,48.00
2019-03-09T09:11:18.657Z,44.00
2019-03-09T09:12:18.722Z,44.00
2019-03-09T09:13:18.636Z,48.00
2019-03-09T09:14:18.656Z,48.00
2019-03-09T09:15:18.660Z,52.00
2019-03-09T09:16:18.625Z,52.00
2019-03-09T09:17:18.636Z,56.00
2019-03-09T09:18:18.584Z,56.00
2019-03-09T09:19:18.615Z,56.00
2019-03-09T09:20:18.647Z,60.00
2019-03-09T09:21:18.645Z,64.00
2019-03-09T09:22:18.565Z,72.00
2019-03-09T09:23:18.578Z,76.00
2019-03-09T09:24:18.547Z,76.00
2019-03-09T09:25:18.503Z,80.00
2019-03-09T09:26:18.530Z,92.00
2019-03-09T09:27:18.504Z,96.00
2019-03-09T09:28:18.480Z,100.00
2019-03-09T09:29:18.545Z,92.00
2019-03-09T09:30:18.489Z,72.00
2019-03-09T09:31:18.450Z,76.00
2019-03-09T09:32:18.424Z,84.00
2019-03-09T09:33:18.466Z,96.00
2019-03-09T09:34:18.528Z,96.00
2019-03-09T09:35:18.400Z,92.00
2019-03-09T09:36:18.399Z,92.00
2019-03-09T09:37:18.404Z,96.00
2019-03-09T09:38:18.558Z,96.00
2019-03-09T09:39:18.370Z,96.00
2019-03-09T09:40:18.579Z,104.00
2019-03-09T09:41:18.392Z,112.00
2019-03-09T09:42:18.355Z,108.00
2019-03-09T09:43:18.325Z,100.00
2019-03-09T09:44:18.424Z,92.00
2019-03-09T09:45:18.356Z,88.00
2019-03-09T09:46:18.403Z,92.00
2019-03-09T09:47:18.305Z,96.00
2019-03-09T09:48:18.274Z,100.00
2019-03-09T09:49:18.252Z,100.00
2019-03-09T09:50:18.278Z,92.00
2019-03-09T09:51:18.260Z,88.00
2019-03-09T09:52:18.222Z,80.00
2019-03-09T09:53:18.204Z,80.00
2019-03-09T09:54:18.239Z,80.00
2019-03-09T09:55:18.241Z,76.00
2019-03-09T09:56:18.241Z,76.00
2019-03-09T09:57:18.288Z,76.00
2019-03-09T09:58:18.172Z,76.00
2019-03-09T09:59:18.164Z,76.00
2019-03-09T10:00:18.140Z,84.00
2019-03-09T10:01:18.107Z,92.00
2019-03-09T10:02:18.119Z,100.00
2019-03-09T10:03:18.194Z,96.00
2019-03-09T10:04:18.268Z,92.00
2019-03-09T10:05:18.063Z,96.00
2019-03-09T10:06:18.086Z,92.00
2019-03-09T10:07:18.037Z,104.00
2019-03-09T10:08:18.007Z,92.00
2019-03-09T10:09:18.072Z,84.00
2019-03-09T10:10:18.079Z,80.00
2019-03-09T10:11:17.982Z,76.00
2019-03-09T10:12:17.989Z,72.00
2019-03-09T10:13:17.962Z,68.00
2019-03-09T10:14:17.993Z,68.00
2019-03-09T10:15:17.978Z,68.00
2019-03-09T10:16:18.055Z,64.00
2019-03-09T10:17:17.941Z,64.00
2019-03-09T10:18:17.915Z,64.00
2019-03-09T10:19:17.981Z,64.00
2019-03-09T10:20:17.917Z,60.00
2019-03-09T10:21:17.963Z,60.00
2019-03-09T10:22:17.896Z,56.00
2019-03-09T10:23:17.914Z,56.00
2019-03-09T10:24:17.860Z,52.00
2019-03-09T10:25:17.862Z,52.00
2019-03-09T10:26:17.851Z,56.00
2019-03-09T10:27:17.865Z,52.00
2019-03-09T10:28:17.813Z,56.00
2019-03-09T10:29:17.818Z,48.00
2019-03-09T10:30:17.894Z,52.00
2019-03-09T10:31:17.793Z,52.00
2019-03-09T10:32:17.797Z,52.00
2019-03-09T10:33:17.762Z,52.00
2019-03-09T10:34:17.836Z,48.00
2019-03-09T10:35:17.773Z,48.00
2019-03-09T10:36:18.624Z,48.00
2019-03-09T10:37:17.686Z,52.00
2019-03-09T10:38:17.718Z,48.00
2019-03-09T10:39:17.693Z,48.00
2019-03-09T10:40:17.678Z,48.00
2019-03-09T10:41:17.660Z,48.00
2019-03-09T10:42:17.637Z,48.00
2019-03-09T10:43:17.661Z,48.00
2019-03-09T10:44:17.633Z,48.00
2019-03-09T10:45:17.687Z,48.00
2019-03-09T10:46:17.624Z,52.00
2019-03-09T10:47:17.641Z,52.00
2019-03-09T10:48:17.569Z,52.00
2019-03-09T10:49:17.559Z,52.00
2019-03-09T10:50:17.594Z,56.00
2019-03-09T10:51:17.590Z,56.00
2019-03-09T10:52:17.559Z,56.00
2019-03-09T10:53:17.595Z,56.00
2019-03-09T10:54:17.607Z,56.00
2019-03-09T10:55:17.525Z,64.00
2019-03-09T10:56:17.539Z,68.00
2019-03-09T10:57:17.824Z,72.00
2019-03-09T10:58:17.869Z,72.00
2019-03-09T10:59:17.548Z,76.00
2019-03-09T11:00:17.468Z,80.00
2019-03-09T11:01:17.881Z,80.00
2019-03-09T11:02:17.460Z,80.00
2019-03-09T11:03:17.418Z,88.00
2019-03-09T11:04:27.021Z,88.00
2019-03-09T11:05:18.442Z,88.00
2019-03-09T11:06:17.378Z,92.00
2019-03-09T11:07:17.363Z,92.00
2019-03-09T11:08:17.383Z,92.00
2019-03-09T11:09:17.358Z,92.00
2019-03-09T11:10:17.362Z,88.00
2019-03-09T11:11:17.313Z,92.00
2019-03-09T11:12:17.354Z,92.00
2019-03-09T11:13:17.355Z,92.00
2019-03-09T11:14:17.279Z,96.00
2019-03-09T11:15:17.282Z,96.00
2019-03-09T11:16:17.284Z,92.00
2019-03-09T11:17:17.250Z,88.00
2019-03-09T11:18:17.267Z,84.00
2019-03-09T11:19:17.248Z,84.00
2019-03-09T11:20:17.206Z,84.00
2019-03-09T11:21:17.216Z,80.00
2019-03-09T11:22:17.191Z,72.00
2019-03-09T11:23:17.191Z,68.00
2019-03-09T11:24:17.236Z,64.00
2019-03-09T11:25:17.168Z,60.00
2019-03-09T11:26:17.454Z,60.00
2019-03-09T11:27:17.146Z,56.00
2019-03-09T11:28:17.122Z,60.00
2019-03-09T11:29:17.136Z,56.00
2019-03-09T11:30:17.316Z,56.00
2019-03-09T11:31:17.166Z,56.00
2019-03-09T11:32:17.079Z,56.00
2019-03-09T11:33:17.075Z,60.00
2019-03-09T11:34:17.074Z,64.00
2019-03-09T11:35:17.081Z,64.00
2019-03-09T11:36:17.101Z,64.00
2019-03-09T11:37:17.046Z,60.00
2019-03-09T11:38:17.040Z,56.00
2019-03-09T11:39:17.006Z,56.00
2019-03-09T11:40:17.007Z,52.00
2019-03-09T11:41:19.318Z,48.00
2019-03-09T11:42:17.006Z,48.00
2019-03-09T11:43:23.997Z,48.00
2019-03-09T11:44:24.003Z,48.00
2019-03-09T11:45:17.167Z,48.00
2019-03-09T11:46:25.702Z,52.00
2019-03-09T11:47:24.405Z,56.00
2019-03-09T11:48:16.888Z,60.00
2019-03-09T11:49:16.875Z,60.00
2019-03-09T11:50:16.870Z,60.00
2019-03-09T11:51:16.867Z,60.00
2019-03-09T11:52:20.519Z,60.00
2019-03-09T11:53:16.864Z,64.00
2019-03-09T11:54:16.866Z,64.00
2019-03-09T11:55:16.806Z,68.00
2019-03-09T11:56:17.290Z,72.00
2019-03-09T11:57:16.928Z,84.00
2019-03-09T11:58:16.957Z,84.00
2019-03-09T11:59:17.009Z,84.00
2019-03-09T12:00:16.857Z,88.00
2019-03-09T12:01:16.785Z,108.00
2019-03-09T12:02:16.759Z,132.00
2019-03-09T12:03:16.720Z,120.00
2019-03-09T12:04:16.737Z,144.00
2019-03-09T12:05:16.750Z,168.00
2019-03-09T12:06:16.683Z,212.00
2019-03-09T12:07:16.752Z,200.00
2019-03-09T12:08:16.764Z,216.00
2019-03-09T12:09:16.668Z,192.00
2019-03-09T12:10:16.705Z,100.00
2019-03-09T12:11:16.654Z,92.00
2019-03-09T12:12:16.658Z,96.00
2019-03-09T12:13:16.630Z,100.00
2019-03-09T12:14:16.718Z,136.00
2019-03-09T12:15:16.608Z,144.00
2019-03-09T12:16:16.611Z,172.00
2019-03-09T12:17:16.665Z,164.00
2019-03-09T12:18:16.567Z,196.00
2019-03-09T12:19:16.600Z,256.00
2019-03-09T12:20:16.544Z,272.00
2019-03-09T12:21:16.570Z,316.00
2019-03-09T12:22:16.535Z,328.00
2019-03-09T12:23:16.512Z,324.00
2019-03-09T12:24:19.822Z,292.00
2019-03-09T12:25:16.504Z,320.00
2019-03-09T12:26:16.483Z,316.00
2019-03-09T12:27:16.494Z,304.00
2019-03-09T12:28:16.465Z,332.00
2019-03-09T12:29:16.445Z,336.00
2019-03-09T12:30:16.432Z,328.00
2019-03-09T12:31:16.447Z,276.00
2019-03-09T12:32:16.433Z,112.00
2019-03-09T12:33:16.418Z,84.00
2019-03-09T12:34:16.370Z,92.00
2019-03-09T12:35:16.378Z,176.00
2019-03-09T12:36:16.366Z,140.00
2019-03-09T12:37:16.371Z,84.00
2019-03-09T12:38:16.381Z,72.00
2019-03-09T12:39:16.307Z,80.00
2019-03-09T12:40:16.327Z,108.00
2019-03-09T12:41:16.303Z,160.00
2019-03-09T12:42:16.352Z,88.00
2019-03-09T12:43:16.296Z,84.00
2019-03-09T12:44:16.284Z,76.00
2019-03-09T12:45:16.316Z,60.00
2019-03-09T12:46:16.366Z,68.00
2019-03-09T12:47:16.480Z,80.00
2019-03-09T12:48:16.210Z,88.00
2019-03-09T12:49:16.211Z,140.00
2019-03-09T12:50:16.190Z,56.00
2019-03-09T12:51:16.199Z,52.00
2019-03-09T12:52:16.178Z,52.00
2019-03-09T12:53:16.191Z,48.00
2019-03-09T12:54:16.153Z,48.00
2019-03-09T12:55:16.165Z,52.00
2019-03-09T12:56:16.152Z,56.00
2019-03-09T12:57:16.311Z,60.00
2019-03-09T12:58:16.107Z,60.00
2019-03-09T12:59:16.103Z,56.00
2019-03-09T13:00:16.076Z,48.00
2019-03-09T13:01:16.066Z,44.00
2019-03-09T13:02:16.084Z,40.00